createdAt,value
2023-01-13T05:13:26.597Z,34.14
2023-01-13T05:25:26.495Z,29.08
2023-01-13T05:26:26.550Z,30.13
2023-01-13T05:27:26.458Z,27.41
2023-01-13T05:28:26.452Z,25.99
2023-01-13T05:29:26.447Z,28.24
2023-01-13T05:30:26.425Z,28.14
2023-01-13T05:31:26.445Z,28.01
2023-01-13T05:32:26.415Z,29.52
2023-01-13T05:33:26.401Z,27.37
2023-01-13T05:34:26.395Z,25.51
2023-01-13T05:35:26.390Z,30.55
2023-01-13T05:36:26.368Z,27.83
2023-01-13T05:37:26.361Z,29.66
2023-01-13T05:38:26.356Z,30.68
2023-01-13T05:39:26.343Z,30.38
2023-01-13T05:40:26.343Z,27.98
2023-01-13T05:41:26.320Z,28.22
2023-01-13T05:42:26.354Z,29.03
2023-01-13T05:43:26.304Z,31.14
2023-01-13T05:44:26.292Z,32.79
2023-01-13T05:45:26.281Z,30.45
2023-01-13T05:46:26.309Z,29.70
2023-01-13T05:47:26.265Z,30.61
2023-01-13T05:48:26.257Z,28.59
2023-01-13T05:49:27.208Z,25.78
2023-01-13T05:50:26.233Z,31.76
2023-01-13T05:51:26.460Z,29.87
2023-01-13T05:52:26.218Z,29.88
2023-01-13T05:53:26.214Z,30.50
2023-01-13T05:54:26.196Z,29.43
2023-01-13T05:55:26.186Z,31.91
2023-01-13T05:56:26.184Z,29.21
2023-01-13T05:57:26.168Z,31.36
2023-01-13T05:58:26.189Z,31.48
2023-01-13T05:59:26.161Z,30.48
2023-01-13T06:00:26.148Z,30.53
2023-01-13T06:01:26.285Z,31.33
2023-01-13T06:02:26.121Z,32.73
2023-01-13T06:03:26.111Z,34.49
2023-01-13T06:04:26.132Z,30.27
2023-01-13T06:05:26.099Z,31.35
2023-01-13T06:06:26.083Z,28.82
2023-01-13T06:07:26.077Z,29.50
2023-01-13T06:08:26.104Z,33.46
2023-01-13T06:09:26.052Z,28.99
2023-01-13T06:10:26.046Z,25.00
2023-01-13T06:11:26.075Z,25.57
2023-01-13T06:12:26.023Z,27.67
2023-01-13T06:13:26.011Z,25.33
2023-01-13T06:14:26.042Z,28.59
2023-01-13T06:15:25.997Z,28.80
2023-01-13T06:16:26.006Z,26.83
2023-01-13T06:17:26.217Z,27.13
2023-01-13T06:18:25.971Z,26.28
2023-01-13T06:19:25.962Z,27.66
2023-01-13T06:20:25.968Z,30.96
2023-01-13T06:21:26.216Z,30.09
2023-01-13T06:22:25.938Z,29.58
2023-01-13T06:23:25.936Z,28.67
2023-01-13T06:24:26.222Z,27.61
2023-01-13T06:25:25.905Z,25.89
2023-01-13T06:26:25.909Z,29.05
2023-01-13T06:27:25.881Z,26.57
2023-01-13T06:28:26.223Z,26.23
2023-01-13T06:29:25.871Z,25.44
2023-01-13T06:30:25.909Z,27.93
2023-01-13T06:31:25.855Z,27.55
2023-01-13T06:32:25.840Z,26.56
2023-01-13T06:33:26.229Z,27.06
2023-01-13T06:34:25.817Z,25.00
2023-01-13T06:35:25.812Z,27.56
2023-01-13T06:36:26.226Z,25.83
2023-01-13T06:37:25.789Z,28.73
2023-01-13T06:38:25.794Z,25.09
2023-01-13T06:39:25.767Z,28.16
2023-01-13T06:40:26.909Z,27.45
2023-01-13T06:41:25.751Z,25.48
2023-01-13T06:42:25.741Z,25.59
2023-01-13T06:43:26.223Z,26.66
2023-01-13T06:44:25.727Z,28.86
2023-01-13T06:45:25.717Z,26.74
2023-01-13T06:46:25.868Z,29.60
2023-01-13T06:47:25.692Z,25.36
2023-01-13T06:48:26.484Z,26.20
2023-01-13T06:49:25.676Z,27.23
2023-01-13T06:50:25.671Z,26.27
2023-01-13T06:51:25.654Z,27.09
2023-01-13T06:52:25.729Z,29.38
2023-01-13T06:54:27.701Z,27.72
2023-01-13T06:55:25.800Z,27.82
2023-01-13T06:56:25.604Z,29.68
2023-01-13T06:57:25.603Z,31.93
2023-01-13T06:58:25.742Z,35.22
2023-01-13T06:59:25.579Z,42.51
2023-01-13T07:02:25.703Z,51.78
2023-01-13T07:03:25.729Z,54.81
2023-01-13T07:11:25.738Z,78.66
2023-01-13T07:14:26.467Z,87.52
2023-01-13T07:15:25.817Z,84.78
2023-01-13T07:18:25.820Z,87.54
2023-01-13T07:24:25.799Z,92.10
2023-01-13T07:29:25.740Z,96.90
2023-01-13T07:34:25.774Z,103.20
2023-01-13T08:33:25.731Z,71.77
2023-01-13T09:07:27.612Z,130.56
2023-01-13T10:38:26.763Z,48.24
2023-01-13T10:52:27.063Z,35.00
2023-01-13T11:09:30.711Z,25.89
2023-01-13T11:11:26.457Z,26.46
2023-01-13T22:45:16.719Z,78.83
2023-01-13T22:47:16.698Z,80.64
2023-01-13T22:48:16.685Z,79.91
2023-01-13T22:49:16.678Z,80.43
2023-01-13T22:50:16.687Z,79.51
2023-01-13T22:51:16.676Z,80.45
2023-01-13T22:52:16.651Z,78.75
2023-01-13T22:53:16.641Z,77.23
2023-01-13T22:54:16.638Z,78.78
2023-01-13T22:55:16.631Z,78.87
2023-01-13T22:56:16.615Z,79.67
2023-01-13T22:57:16.608Z,81.95
2023-01-13T22:58:16.595Z,82.57
2023-01-13T22:59:16.607Z,82.17
2023-01-13T23:00:16.572Z,80.47
2023-01-13T23:01:16.697Z,79.56
2023-01-13T23:02:16.592Z,80.88
2023-01-13T23:03:16.543Z,80.39
2023-01-13T23:04:16.700Z,83.04
2023-01-13T23:05:16.524Z,78.93
2023-01-13T23:06:16.516Z,80.29
2023-01-13T23:07:16.512Z,80.15
2023-01-13T23:08:16.494Z,81.96
2023-01-13T23:09:16.490Z,79.95
2023-01-13T23:10:16.478Z,81.06
2023-01-13T23:11:16.468Z,82.45
2023-01-13T23:12:16.459Z,80.35
2023-01-13T23:13:16.447Z,79.18
2023-01-13T23:14:16.438Z,83.49
2023-01-13T23:15:16.428Z,82.48
2023-01-13T23:16:16.426Z,80.99
2023-01-13T23:17:16.413Z,81.13
2023-01-13T23:18:16.422Z,81.69
2023-01-13T23:19:16.442Z,79.40
2023-01-13T23:20:16.382Z,83.88
2023-01-13T23:21:16.374Z,82.91
2023-01-13T23:22:16.365Z,80.98
2023-01-13T23:23:16.355Z,81.35
2023-01-13T23:24:16.342Z,80.71
2023-01-13T23:25:16.338Z,82.78
2023-01-13T23:26:16.325Z,82.76
2023-01-13T23:27:16.313Z,80.15
2023-01-13T23:28:16.312Z,80.81
2023-01-13T23:29:16.299Z,81.95
2023-01-13T23:30:16.285Z,82.15
2023-01-13T23:31:16.323Z,83.61
2023-01-13T23:32:16.280Z,81.83
2023-01-13T23:33:16.270Z,81.60
2023-01-13T23:34:16.269Z,81.31
2023-01-13T23:35:16.260Z,79.01
2023-01-13T23:36:16.232Z,81.31
2023-01-13T23:37:16.220Z,80.66
2023-01-13T23:38:16.209Z,84.16
2023-01-13T23:39:16.206Z,83.29
2023-01-13T23:40:16.221Z,82.84
2023-01-13T23:41:16.210Z,83.66
2023-01-13T23:42:16.172Z,82.64
2023-01-13T23:43:16.160Z,80.24
2023-01-13T23:44:16.157Z,81.30
2023-01-13T23:45:16.140Z,80.60
2023-01-13T23:46:16.142Z,83.81
2023-01-13T23:47:16.121Z,85.15
2023-01-13T23:48:16.113Z,85.64
2023-01-13T23:49:16.107Z,84.37
2023-01-13T23:50:16.120Z,83.24
2023-01-13T23:51:16.084Z,85.61
2023-01-13T23:52:16.085Z,83.22
2023-01-13T23:53:16.063Z,87.20
2023-01-13T23:54:16.054Z,84.85
2023-01-13T23:55:16.054Z,84.67
2023-01-13T23:56:16.048Z,81.00
2023-01-13T23:57:16.026Z,85.71
2023-01-13T23:58:16.013Z,85.76
2023-01-13T23:59:16.011Z,84.08
